Grottoes, VA (24441)

2:56 AM EST on December 11, 2016 (GMT -0500)
Grottoes FD | | Change Station

Elev 1115 ft 38.26 °N, 78.82 °W | Updated 4 seconds ago

Mostly Cloudy
Mostly Cloudy
24.1 °F
Feels Like 24 °F
N
0.0
Wind Variable Wind from South
Gusts 0.0 mph

Today
High -- | Low -- °F
--% Chance of Precip.
Yesterday
High -- | Low -- °F
Precip. -- in
Pressure 30.46 in
Visibility 10.0 miles
Clouds Scattered Clouds 12000 ft
Windchill 24 °F
Dew Point 18 °F
Humidity 76%
Rainfall 0.00 in
Snow Depth Not available.
7:22 AM 4:55 PM
Waxing Gibbous, 90% visible
METAR KSHD 110735Z AUTO 00000KT 10SM SCT120 M05/M09 A3046 RMK AO2 T10471089
Pressure 30.46 in
Visibility 10.0 miles
Clouds Scattered Clouds 12000 ft
Windchill 24 °F
Dew Point 18 °F
Humidity 76%
Rainfall 0.00 in
Snow Depth Not available.
7:22 AM 4:55 PM
Waxing Gibbous, 90% visible
METAR KSHD 110735Z AUTO 00000KT 10SM SCT120 M05/M09 A3046 RMK AO2 T10471089

10-Day Weather Forecast

Almanac

Astronomy

Dec. 11, 2016 Rise Set
Actual Time
Civil Twilight
Nautical Twilight
Astronomical Twilight
Moon
Length of Visible Light
Length of Day
Tomorrow will be .
, % of the Moon is Illuminated

Today's Extremes

State Highs State Lows

Community

WunderPhotos

Upload Photos

1,956,707 photos uploaded!

WunderBlog® & News

Nearby

Air Quality

  Air Quality AQ Index Pollutant
Not available.

Snow Depth

Station Depth Elevation

Earthquake Activity

City Distance Mag. Time & Date
Minimum magnitude displayed is 2.5.

Coastal Water Temperatures

Place Temperature

Stations

Nearby Weather Stations

Station Location Temp. Windchill Dew Point Humidity Wind Precip. Elev Updated Type
                   

Watches & Warnings

There are currently no watches in effect.